sensor_id;sensor_type;location;lat;lon;timestamp;pressure;altitude;pressure_sealevel;temperature;humidity
28354;BME280;15603;50.878;8.036;2023-04-23T00:01:17;146061.63;;;11.83;100.00
28354;BME280;15603;50.878;8.036;2023-04-23T00:03:46;146011.78;;;11.62;100.00
28354;BME280;15603;50.878;8.036;2023-04-23T00:06:16;145978.94;;;11.48;100.00
28354;BME280;15603;50.878;8.036;2023-04-23T00:08:43;146003.25;;;11.58;100.00
28354;BME280;15603;50.878;8.036;2023-04-23T00:11:11;145993.53;;;11.54;100.00
28354;BME280;15603;50.878;8.036;2023-04-23T00:13:38;146028.81;;;11.69;100.00
28354;BME280;15603;50.878;8.036;2023-04-23T00:16:06;145975.28;;;11.47;100.00
28354;BME280;15603;50.878;8.036;2023-04-23T00:18:33;145993.53;;;11.54;100.00
28354;BME280;15603;50.878;8.036;2023-04-23T00:21:00;145999.63;;;11.57;100.00
28354;BME280;15603;50.878;8.036;2023-04-23T00:23:27;146008.16;;;11.61;100.00
28354;BME280;15603;50.878;8.036;2023-04-23T00:25:54;145976.53;;;11.47;100.00
28354;BME280;15603;50.878;8.036;2023-04-23T00:28:21;145957.03;;;11.39;100.00
28354;BME280;15603;50.878;8.036;2023-04-23T00:30:48;145997.19;;;11.56;100.00
28354;BME280;15603;50.878;8.036;2023-04-23T00:33:16;146013.03;;;11.63;100.00
28354;BME280;15603;50.878;8.036;2023-04-23T00:35:43;146005.69;;;11.59;100.00
28354;BME280;15603;50.878;8.036;2023-04-23T00:38:10;145991.13;;;11.53;100.00
28354;BME280;15603;50.878;8.036;2023-04-23T00:40:37;145982.59;;;11.50;100.00
28354;BME280;15603;50.878;8.036;2023-04-23T00:43:05;145991.13;;;11.53;100.00
28354;BME280;15603;50.878;8.036;2023-04-23T00:45:33;145987.44;;;11.52;100.00
28354;BME280;15603;50.878;8.036;2023-04-23T00:48:01;145983.81;;;11.50;100.00
28354;BME280;15603;50.878;8.036;2023-04-23T00:50:29;145978.94;;;11.48;100.00
28354;BME280;15603;50.878;8.036;2023-04-23T00:52:56;145991.13;;;11.53;100.00
28354;BME280;15603;50.878;8.036;2023-04-23T00:55:23;145993.53;;;11.54;100.00
28354;BME280;15603;50.878;8.036;2023-04-23T00:57:51;145978.94;;;11.48;100.00
28354;BME280;15603;50.878;8.036;2023-04-23T01:00:18;145983.81;;;11.50;100.00
28354;BME280;15603;50.878;8.036;2023-04-23T01:02:47;145941.25;;;11.32;100.00
28354;BME280;15603;50.878;8.036;2023-04-23T01:05:16;145991.13;;;11.53;100.00
28354;BME280;15603;50.878;8.036;2023-04-23T01:07:45;145978.94;;;11.48;100.00
28354;BME280;15603;50.878;8.036;2023-04-23T01:10:12;145954.63;;;11.38;100.00
28354;BME280;15603;50.878;8.036;2023-04-23T01:12:41;145965.56;;;11.43;100.00
28354;BME280;15603;50.878;8.036;2023-04-23T01:15:08;145950.97;;;11.36;100.00
28354;BME280;15603;50.878;8.036;2023-04-23T01:17:35;145876.81;;;11.05;100.00
28354;BME280;15603;50.878;8.036;2023-04-23T01:20:03;145940.03;;;11.32;100.00
28354;BME280;15603;50.878;8.036;2023-04-23T01:22:35;145981.38;;;11.49;100.00
28354;BME280;15603;50.878;8.036;2023-04-23T01:25:03;145980.13;;;11.49;100.00
28354;BME280;15603;50.878;8.036;2023-04-23T01:27:32;145913.28;;;11.20;100.00
28354;BME280;15603;50.878;8.036;2023-04-23T01:30:00;145970.41;;;11.45;100.00
28354;BME280;15603;50.878;8.036;2023-04-23T01:32:28;145949.78;;;11.36;100.00
28354;BME280;15603;50.878;8.036;2023-04-23T01:34:55;145964.34;;;11.42;100.00
28354;BME280;15603;50.878;8.036;2023-04-23T01:37:23;145935.19;;;11.30;100.00
28354;BME280;15603;50.878;8.036;2023-04-23T01:39:51;145978.94;;;11.48;100.00
28354;BME280;15603;50.878;8.036;2023-04-23T01:42:18;145976.53;;;11.47;100.00
28354;BME280;15603;50.878;8.036;2023-04-23T01:44:45;145976.53;;;11.47;100.00
28354;BME280;15603;50.878;8.036;2023-04-23T01:47:12;145954.63;;;11.38;100.00
28354;BME280;15603;50.878;8.036;2023-04-23T01:49:40;145949.78;;;11.36;100.00
28354;BME280;15603;50.878;8.036;2023-04-23T01:52:07;145937.59;;;11.31;100.00
28354;BME280;15603;50.878;8.036;2023-04-23T01:54:34;145940.03;;;11.32;100.00
28354;BME280;15603;50.878;8.036;2023-04-23T01:57:01;145937.59;;;11.31;100.00
28354;BME280;15603;50.878;8.036;2023-04-23T01:59:28;145891.38;;;11.11;100.00
28354;BME280;15603;50.878;8.036;2023-04-23T02:01:56;145925.41;;;11.26;100.00
28354;BME280;15603;50.878;8.036;2023-04-23T02:04:23;145884.06;;;11.08;100.00
28354;BME280;15603;50.878;8.036;2023-04-23T02:06:50;145923.00;;;11.25;100.00
28354;BME280;15603;50.878;8.036;2023-04-23T02:09:18;145920.56;;;11.24;100.00
28354;BME280;15603;50.878;8.036;2023-04-23T02:11:45;145898.69;;;11.14;100.00
28354;BME280;15603;50.878;8.036;2023-04-23T02:14:12;145881.66;;;11.07;100.00
28354;BME280;15603;50.878;8.036;2023-04-23T02:16:39;145918.16;;;11.23;100.00
28354;BME280;15603;50.878;8.036;2023-04-23T02:19:06;145806.28;;;10.75;100.00
28354;BME280;15603;50.878;8.036;2023-04-23T02:21:33;145903.56;;;11.16;100.00
28354;BME280;15603;50.878;8.036;2023-04-23T02:24:01;145912.03;;;11.20;100.00
28354;BME280;15603;50.878;8.036;2023-04-23T02:26:28;145935.19;;;11.30;100.00
28354;BME280;15603;50.878;8.036;2023-04-23T02:28:55;145901.09;;;11.15;100.00
28354;BME280;15603;50.878;8.036;2023-04-23T02:31:22;145910.84;;;11.19;100.00
28354;BME280;15603;50.878;8.036;2023-04-23T02:33:50;145908.44;;;11.18;100.00
28354;BME280;15603;50.878;8.036;2023-04-23T02:36:17;145901.09;;;11.15;100.00
28354;BME280;15603;50.878;8.036;2023-04-23T02:38:44;145915.69;;;11.22;100.00
28354;BME280;15603;50.878;8.036;2023-04-23T02:41:13;145835.47;;;10.88;100.00
28354;BME280;15603;50.878;8.036;2023-04-23T02:43:40;145910.84;;;11.19;100.00
28354;BME280;15603;50.878;8.036;2023-04-23T02:46:07;145914.50;;;11.21;100.00
28354;BME280;15603;50.878;8.036;2023-04-23T02:48:40;145852.47;;;10.95;100.00
28354;BME280;15603;50.878;8.036;2023-04-23T02:51:09;145848.84;;;10.93;100.00
28354;BME280;15603;50.878;8.036;2023-04-23T02:53:36;145876.81;;;11.05;100.00
28354;BME280;15603;50.878;8.036;2023-04-23T02:56:03;145880.47;;;11.07;100.00
28354;BME280;15603;50.878;8.036;2023-04-23T02:58:31;145881.66;;;11.07;100.00
28354;BME280;15603;50.878;8.036;2023-04-23T03:01:00;145871.94;;;11.03;100.00
28354;BME280;15603;50.878;8.036;2023-04-23T03:03:31;145820.84;;;10.81;100.00
28354;BME280;15603;50.878;8.036;2023-04-23T03:06:01;145864.63;;;11.00;100.00
28354;BME280;15603;50.878;8.036;2023-04-23T03:08:28;145864.63;;;11.00;100.00
28354;BME280;15603;50.878;8.036;2023-04-23T03:10:56;145850.06;;;10.94;100.00
28354;BME280;15603;50.878;8.036;2023-04-23T03:13:24;145786.84;;;10.67;100.00
28354;BME280;15603;50.878;8.036;2023-04-23T03:15:52;145801.41;;;10.73;100.00
28354;BME280;15603;50.878;8.036;2023-04-23T03:18:20;145859.78;;;10.98;100.00
28354;BME280;15603;50.878;8.036;2023-04-23T03:20:50;145858.56;;;10.97;100.00
28354;BME280;15603;50.878;8.036;2023-04-23T03:23:17;145851.25;;;10.94;100.00
28354;BME280;15603;50.878;8.036;2023-04-23T03:25:46;145862.22;;;10.99;100.00
28354;BME280;15603;50.878;8.036;2023-04-23T03:28:13;145825.75;;;10.84;100.00
28354;BME280;15603;50.878;8.036;2023-04-23T03:30:40;145828.16;;;10.85;100.00
28354;BME280;15603;50.878;8.036;2023-04-23T03:33:08;145867.09;;;11.01;100.00
28354;BME280;15603;50.878;8.036;2023-04-23T03:35:35;145809.94;;;10.77;100.00
28354;BME280;15603;50.878;8.036;2023-04-23T03:38:04;145831.81;;;10.86;100.00
28354;BME280;15603;50.878;8.036;2023-04-23T03:40:34;145830.63;;;10.86;100.00
28354;BME280;15603;50.878;8.036;2023-04-23T03:43:03;145772.25;;;10.61;100.00
28354;BME280;15603;50.878;8.036;2023-04-23T03:45:48;145813.59;;;10.78;100.00
28354;BME280;15603;50.878;8.036;2023-04-23T03:48:16;145813.59;;;10.78;100.00
28354;BME280;15603;50.878;8.036;2023-04-23T03:50:43;145771.06;;;10.60;100.00
28354;BME280;15603;50.878;8.036;2023-04-23T03:53:23;145808.72;;;10.76;100.00
28354;BME280;15603;50.878;8.036;2023-04-23T03:56:09;145761.28;;;10.56;100.00
28354;BME280;15603;50.878;8.036;2023-04-23T03:58:46;145780.78;;;10.65;100.00
28354;BME280;15603;50.878;8.036;2023-04-23T04:01:13;145767.41;;;10.59;100.00
28354;BME280;15603;50.878;8.036;2023-04-23T04:03:44;145779.53;;;10.64;100.00
28354;BME280;15603;50.878;8.036;2023-04-23T04:06:12;145747.97;;;10.51;100.00
28354;BME280;15603;50.878;8.036;2023-04-23T04:08:39;145738.19;;;10.47;100.00
28354;BME280;15603;50.878;8.036;2023-04-23T04:11:06;145743.06;;;10.49;100.00
28354;BME280;15603;50.878;8.036;2023-04-23T04:13:34;145733.34;;;10.45;100.00
28354;BME280;15603;50.878;8.036;2023-04-23T04:16:01;145738.19;;;10.47;100.00
28354;BME280;15603;50.878;8.036;2023-04-23T04:18:28;145701.75;;;10.31;100.00
28354;BME280;15603;50.878;8.036;2023-04-23T04:20:55;145715.13;;;10.37;100.00
28354;BME280;15603;50.878;8.036;2023-04-23T04:23:22;145678.59;;;10.21;100.00
28354;BME280;15603;50.878;8.036;2023-04-23T04:25:49;145709.06;;;10.34;100.00
28354;BME280;15603;50.878;8.036;2023-04-23T04:28:17;145706.59;;;10.33;100.00
28354;BME280;15603;50.878;8.036;2023-04-23T04:30:44;145699.34;;;10.30;100.00
28354;BME280;15603;50.878;8.036;2023-04-23T04:33:11;145654.31;;;10.11;100.00
28354;BME280;15603;50.878;8.036;2023-04-23T04:35:38;145657.97;;;10.13;100.00
28354;BME280;15603;50.878;8.036;2023-04-23T04:38:05;145667.69;;;10.17;100.00
28354;BME280;15603;50.878;8.036;2023-04-23T04:40:33;145657.97;;;10.13;100.00
28354;BME280;15603;50.878;8.036;2023-04-23T04:43:00;145587.50;;;9.83;100.00
28354;BME280;15603;50.878;8.036;2023-04-23T04:45:27;145589.94;;;9.84;100.00
28354;BME280;15603;50.878;8.036;2023-04-23T04:47:54;145586.28;;;9.82;100.00
28354;BME280;15603;50.878;8.036;2023-04-23T04:50:21;145592.34;;;9.85;100.00
28354;BME280;15603;50.878;8.036;2023-04-23T04:52:48;145606.97;;;9.91;100.00
28354;BME280;15603;50.878;8.036;2023-04-23T04:55:16;145619.06;;;9.96;100.00
28354;BME280;15603;50.878;8.036;2023-04-23T04:57:43;145608.16;;;9.92;100.00
28354;BME280;15603;50.878;8.036;2023-04-23T05:00:29;145609.38;;;9.92;100.00
28354;BME280;15603;50.878;8.036;2023-04-23T05:02:56;145637.31;;;10.04;100.00
28354;BME280;15603;50.878;8.036;2023-04-23T05:05:25;145650.66;;;10.10;100.00
28354;BME280;15603;50.878;8.036;2023-04-23T05:07:53;145643.41;;;10.07;100.00
28354;BME280;15603;50.878;8.036;2023-04-23T05:10:20;145640.97;;;10.06;100.00
28354;BME280;15603;50.878;8.036;2023-04-23T05:12:47;145551.06;;;9.68;100.00
28354;BME280;15603;50.878;8.036;2023-04-23T05:15:14;145645.81;;;10.08;100.00
28354;BME280;15603;50.878;8.036;2023-04-23T05:17:42;145645.81;;;10.08;100.00
28354;BME280;15603;50.878;8.036;2023-04-23T05:20:10;145657.97;;;10.13;100.00
28354;BME280;15603;50.878;8.036;2023-04-23T05:22:37;145691.97;;;10.27;100.00
28354;BME280;15603;50.878;8.036;2023-04-23T05:25:05;145701.75;;;10.31;100.00
28354;BME280;15603;50.878;8.036;2023-04-23T05:27:33;145734.59;;;10.45;100.00
28354;BME280;15603;50.878;8.036;2023-04-23T05:30:02;145716.38;;;10.37;100.00
28354;BME280;15603;50.878;8.036;2023-04-23T05:32:29;145691.97;;;10.27;100.00
28354;BME280;15603;50.878;8.036;2023-04-23T05:34:57;145728.50;;;10.43;100.00
28354;BME280;15603;50.878;8.036;2023-04-23T05:37:25;145706.59;;;10.33;100.00
28354;BME280;15603;50.878;8.036;2023-04-23T05:39:53;145781.97;;;10.65;100.00
28354;BME280;15603;50.878;8.036;2023-04-23T05:42:20;145833.03;;;10.87;100.00
28354;BME280;15603;50.878;8.036;2023-04-23T05:44:47;145888.94;;;11.10;100.00
28354;BME280;15603;50.878;8.036;2023-04-23T05:47:14;145874.34;;;11.04;100.00
28354;BME280;15603;50.878;8.036;2023-04-23T05:49:41;145840.34;;;10.90;100.00
28354;BME280;15603;50.878;8.036;2023-04-23T05:52:08;145908.44;;;11.18;100.00
28354;BME280;15603;50.878;8.036;2023-04-23T05:54:35;145930.28;;;11.28;100.00
28354;BME280;15603;50.878;8.036;2023-04-23T05:57:02;145974.06;;;11.46;100.00
28354;BME280;15603;50.878;8.036;2023-04-23T05:59:30;146005.69;;;11.59;100.00
28354;BME280;15603;50.878;8.036;2023-04-23T06:01:58;146037.31;;;11.73;100.00
28354;BME280;15603;50.878;8.036;2023-04-23T06:04:25;146039.75;;;11.74;100.00
28354;BME280;15603;50.878;8.036;2023-04-23T06:06:53;146027.59;;;11.69;100.00
28354;BME280;15603;50.878;8.036;2023-04-23T06:09:20;146019.09;;;11.65;100.00
28354;BME280;15603;50.878;8.036;2023-04-23T06:11:47;145963.16;;;11.42;100.00
28354;BME280;15603;50.878;8.036;2023-04-23T06:14:16;146020.28;;;11.66;100.00
28354;BME280;15603;50.878;8.036;2023-04-23T06:16:43;145987.44;;;11.52;100.00
28354;BME280;15603;50.878;8.036;2023-04-23T06:19:10;146070.16;;;11.87;100.00
28354;BME280;15603;50.878;8.036;2023-04-23T06:21:37;146022.75;;;11.67;100.00
28354;BME280;15603;50.878;8.036;2023-04-23T06:24:05;146083.59;;;11.92;100.00
28354;BME280;15603;50.878;8.036;2023-04-23T06:26:33;146112.78;;;12.05;100.00
28354;BME280;15603;50.878;8.036;2023-04-23T06:29:09;146083.59;;;11.92;100.00
28354;BME280;15603;50.878;8.036;2023-04-23T06:31:43;146112.78;;;12.05;100.00
28354;BME280;15603;50.878;8.036;2023-04-23T06:34:10;146110.38;;;12.04;100.00
28354;BME280;15603;50.878;8.036;2023-04-23T06:36:37;146115.22;;;12.06;100.00
28354;BME280;15603;50.878;8.036;2023-04-23T06:39:04;146184.56;;;12.35;100.00
28354;BME280;15603;50.878;8.036;2023-04-23T06:41:31;146112.78;;;12.05;100.00
28354;BME280;15603;50.878;8.036;2023-04-23T06:44:09;146154.19;;;12.22;100.00
28354;BME280;15603;50.878;8.036;2023-04-23T06:46:46;146173.66;;;12.30;100.00
28354;BME280;15603;50.878;8.036;2023-04-23T06:49:13;146126.16;;;12.10;100.00
28354;BME280;15603;50.878;8.036;2023-04-23T06:51:41;146232.06;;;12.55;100.00
28354;BME280;15603;50.878;8.036;2023-04-23T06:54:08;146261.25;;;12.67;100.00
28354;BME280;15603;50.878;8.036;2023-04-23T06:56:35;146339.16;;;13.00;100.00
28354;BME280;15603;50.878;8.036;2023-04-23T06:59:02;146326.97;;;12.95;100.00
28354;BME280;15603;50.878;8.036;2023-04-23T07:01:31;146385.44;;;13.20;100.00
28354;BME280;15603;50.878;8.036;2023-04-23T07:03:58;146381.78;;;13.18;100.00
28354;BME280;15603;50.878;8.036;2023-04-23T07:06:25;146344.03;;;13.02;100.00
28354;BME280;15603;50.878;8.036;2023-04-23T07:08:53;146358.63;;;13.08;100.00
28354;BME280;15603;50.878;8.036;2023-04-23T07:11:20;146401.28;;;13.26;100.00
28354;BME280;15603;50.878;8.036;2023-04-23T07:13:47;146430.53;;;13.39;100.00
28354;BME280;15603;50.878;8.036;2023-04-23T07:16:14;146464.66;;;13.53;100.00
28354;BME280;15603;50.878;8.036;2023-04-23T07:18:42;146519.47;;;13.76;100.00
28354;BME280;15603;50.878;8.036;2023-04-23T07:21:09;146575.50;;;14.00;100.00
28354;BME280;15603;50.878;8.036;2023-04-23T07:23:36;146620.59;;;14.19;100.00
28354;BME280;15603;50.878;8.036;2023-04-23T07:26:03;146599.84;;;14.10;100.00
28354;BME280;15603;50.878;8.036;2023-04-23T07:28:30;146641.28;;;14.27;100.00
28354;BME280;15603;50.878;8.036;2023-04-23T07:30:58;146702.22;;;14.53;100.00
28354;BME280;15603;50.878;8.036;2023-04-23T07:33:25;146746.13;;;14.71;100.00
28354;BME280;15603;50.878;8.036;2023-04-23T07:35:52;146721.75;;;14.61;100.00
28354;BME280;15603;50.878;8.036;2023-04-23T07:38:19;146732.72;;;14.66;100.00
28354;BME280;15603;50.878;8.036;2023-04-23T07:40:46;146741.25;;;14.69;100.00
28354;BME280;15603;50.878;8.036;2023-04-23T07:43:13;146708.31;;;14.56;100.00
28354;BME280;15603;50.878;8.036;2023-04-23T07:45:42;146709.50;;;14.56;100.00
28354;BME280;15603;50.878;8.036;2023-04-23T07:48:09;146629.13;;;14.22;100.00
28354;BME280;15603;50.878;8.036;2023-04-23T07:50:36;146679.03;;;14.43;99.63
28354;BME280;15603;50.878;8.036;2023-04-23T07:53:03;146586.44;;;14.04;100.00
28354;BME280;15603;50.878;8.036;2023-04-23T07:55:30;146613.25;;;14.16;100.00
28354;BME280;15603;50.878;8.036;2023-04-23T07:57:58;146659.56;;;14.35;100.00
28354;BME280;15603;50.878;8.036;2023-04-23T08:00:25;146760.75;;;14.78;100.00
28354;BME280;15603;50.878;8.036;2023-04-23T08:02:52;146816.84;;;15.01;99.56
28354;BME280;15603;50.878;8.036;2023-04-23T08:05:19;146831.47;;;15.07;100.00
28354;BME280;15603;50.878;8.036;2023-04-23T08:07:47;146877.78;;;15.27;100.00
28354;BME280;15603;50.878;8.036;2023-04-23T08:10:14;146908.28;;;15.40;100.00
28354;BME280;15603;50.878;8.036;2023-04-23T08:12:41;146902.16;;;15.37;97.31
28354;BME280;15603;50.878;8.036;2023-04-23T08:15:08;146852.16;;;15.16;95.00
28354;BME280;15603;50.878;8.036;2023-04-23T08:17:39;146909.50;;;15.40;94.55
28354;BME280;15603;50.878;8.036;2023-04-23T08:20:07;146848.56;;;15.15;95.49
28354;BME280;15603;50.878;8.036;2023-04-23T08:22:34;146972.91;;;15.67;99.56
28354;BME280;15603;50.878;8.036;2023-04-23T08:25:01;147042.47;;;15.96;94.42
28354;BME280;15603;50.878;8.036;2023-04-23T08:27:29;147107.13;;;16.23;93.07
28354;BME280;15603;50.878;8.036;2023-04-23T08:29:56;147063.19;;;16.05;93.91
28354;BME280;15603;50.878;8.036;2023-04-23T08:32:23;147068.06;;;16.07;91.28
28354;BME280;15603;50.878;8.036;2023-04-23T08:34:50;147138.84;;;16.37;88.33
28354;BME280;15603;50.878;8.036;2023-04-23T08:37:17;147107.13;;;16.23;89.08
28354;BME280;15603;50.878;8.036;2023-04-23T08:39:57;147112.00;;;16.25;88.81
28354;BME280;15603;50.878;8.036;2023-04-23T08:42:57;147240.16;;;16.79;88.48
28354;BME280;15603;50.878;8.036;2023-04-23T08:45:24;147309.75;;;17.08;85.02
28354;BME280;15603;50.878;8.036;2023-04-23T08:47:57;147383.00;;;17.39;83.60
28354;BME280;15603;50.878;8.036;2023-04-23T08:50:28;147263.38;;;16.89;81.16
28354;BME280;15603;50.878;8.036;2023-04-23T08:52:56;147160.84;;;16.46;83.10
28354;BME280;15603;50.878;8.036;2023-04-23T08:55:24;147116.88;;;16.27;82.21
28354;BME280;15603;50.878;8.036;2023-04-23T08:57:51;147092.50;;;16.17;85.33
28354;BME280;15603;50.878;8.036;2023-04-23T09:00:20;147046.16;;;15.98;84.79
28354;BME280;15603;50.878;8.036;2023-04-23T09:02:49;147009.56;;;15.82;88.36
28354;BME280;15603;50.878;8.036;2023-04-23T09:05:16;147104.66;;;16.22;86.92
28354;BME280;15603;50.878;8.036;2023-04-23T09:07:43;147104.66;;;16.22;84.85
28354;BME280;15603;50.878;8.036;2023-04-23T09:10:12;147035.16;;;15.93;86.99
28354;BME280;15603;50.878;8.036;2023-04-23T09:12:43;147002.22;;;15.79;83.68
28354;BME280;15603;50.878;8.036;2023-04-23T09:15:11;147073.00;;;16.09;85.25
28354;BME280;15603;50.878;8.036;2023-04-23T09:17:43;147112.00;;;16.25;84.81
28354;BME280;15603;50.878;8.036;2023-04-23T09:20:12;147082.75;;;16.13;84.32
28354;BME280;15603;50.878;8.036;2023-04-23T09:22:50;147213.28;;;16.68;80.83
28354;BME280;15603;50.878;8.036;2023-04-23T09:25:22;147241.34;;;16.80;81.51
28354;BME280;15603;50.878;8.036;2023-04-23T09:27:50;147131.53;;;16.34;80.93
28354;BME280;15603;50.878;8.036;2023-04-23T09:30:18;147163.25;;;16.47;81.70
28354;BME280;15603;50.878;8.036;2023-04-23T09:32:46;147180.34;;;16.54;80.91
28354;BME280;15603;50.878;8.036;2023-04-23T09:35:16;147174.25;;;16.52;77.93
28354;BME280;15603;50.878;8.036;2023-04-23T09:37:45;147179.13;;;16.54;79.06
28354;BME280;15603;50.878;8.036;2023-04-23T09:40:19;147267.03;;;16.91;77.26
28354;BME280;15603;50.878;8.036;2023-04-23T09:42:47;147221.84;;;16.72;76.34
28354;BME280;15603;50.878;8.036;2023-04-23T09:45:21;147276.81;;;16.95;76.88
28354;BME280;15603;50.878;8.036;2023-04-23T09:47:55;147402.56;;;17.48;74.97
28354;BME280;15603;50.878;8.036;2023-04-23T09:50:33;147470.91;;;17.76;74.58
28354;BME280;15603;50.878;8.036;2023-04-23T09:53:01;147490.53;;;17.84;73.03
28354;BME280;15603;50.878;8.036;2023-04-23T09:55:30;147434.28;;;17.61;74.57
28354;BME280;15603;50.878;8.036;2023-04-23T09:58:02;147285.34;;;16.98;77.14
28354;BME280;15603;50.878;8.036;2023-04-23T10:00:37;147378.13;;;17.37;75.87
28354;BME280;15603;50.878;8.036;2023-04-23T10:03:05;147458.72;;;17.71;75.06
28354;BME280;15603;50.878;8.036;2023-04-23T10:05:38;147378.13;;;17.37;77.19
28354;BME280;15603;50.878;8.036;2023-04-23T10:08:26;147444.09;;;17.65;72.87
28354;BME280;15603;50.878;8.036;2023-04-23T10:10:54;147422.09;;;17.56;70.82
28354;BME280;15603;50.878;8.036;2023-04-23T10:13:41;147405.00;;;17.49;73.15
28354;BME280;15603;50.878;8.036;2023-04-23T10:16:08;147341.50;;;17.22;73.10
28354;BME280;15603;50.878;8.036;2023-04-23T10:18:50;147363.47;;;17.31;76.12
28354;BME280;15603;50.878;8.036;2023-04-23T10:21:18;147321.97;;;17.14;74.35
28354;BME280;15603;50.878;8.036;2023-04-23T10:23:46;147391.56;;;17.43;70.99
28354;BME280;15603;50.878;8.036;2023-04-23T10:26:16;147353.72;;;17.27;71.07
28354;BME280;15603;50.878;8.036;2023-04-23T10:28:46;147407.47;;;17.50;69.52
28354;BME280;15603;50.878;8.036;2023-04-23T10:31:14;147397.66;;;17.45;70.49
28354;BME280;15603;50.878;8.036;2023-04-23T10:33:46;147376.91;;;17.37;66.07
28354;BME280;15603;50.878;8.036;2023-04-23T10:36:25;147326.84;;;17.16;69.10
28354;BME280;15603;50.878;8.036;2023-04-23T10:38:53;147412.34;;;17.52;69.42
28354;BME280;15603;50.878;8.036;2023-04-23T10:41:35;147346.38;;;17.24;65.53
28354;BME280;15603;50.878;8.036;2023-04-23T10:44:10;147358.59;;;17.29;66.87
28354;BME280;15603;50.878;8.036;2023-04-23T10:46:38;147401.31;;;17.47;64.93
28354;BME280;15603;50.878;8.036;2023-04-23T10:49:07;147488.03;;;17.83;65.38
28354;BME280;15603;50.878;8.036;2023-04-23T10:51:35;147541.81;;;18.06;62.77
28354;BME280;15603;50.878;8.036;2023-04-23T10:54:06;147479.47;;;17.80;63.03
28354;BME280;15603;50.878;8.036;2023-04-23T10:56:39;147500.28;;;17.89;63.78
28354;BME280;15603;50.878;8.036;2023-04-23T10:59:17;147500.28;;;17.89;63.34
28354;BME280;15603;50.878;8.036;2023-04-23T11:01:51;147599.22;;;18.30;62.05
28354;BME280;15603;50.878;8.036;2023-04-23T11:04:20;147646.88;;;18.50;63.25
28354;BME280;15603;50.878;8.036;2023-04-23T11:12:01;147615.13;;;18.37;59.54
28354;BME280;15603;50.878;8.036;2023-04-23T11:17:10;147727.53;;;18.84;60.66
28354;BME280;15603;50.878;8.036;2023-04-23T11:19:40;147825.34;;;19.25;58.15
28354;BME280;15603;50.878;8.036;2023-04-23T11:22:15;147808.22;;;19.18;56.67
28354;BME280;15603;50.878;8.036;2023-04-23T11:24:44;147932.91;;;19.70;59.15
28354;BME280;15603;50.878;8.036;2023-04-23T11:27:17;147906.00;;;19.59;57.19
28354;BME280;15603;50.878;8.036;2023-04-23T11:29:45;147870.59;;;19.44;59.21
28354;BME280;15603;50.878;8.036;2023-04-23T11:32:15;147874.22;;;19.46;59.13
28354;BME280;15603;50.878;8.036;2023-04-23T11:34:44;147901.13;;;19.57;59.39
28354;BME280;15603;50.878;8.036;2023-04-23T11:37:17;147875.47;;;19.46;58.05
28354;BME280;15603;50.878;8.036;2023-04-23T11:39:44;147782.53;;;19.07;62.13
28354;BME280;15603;50.878;8.036;2023-04-23T11:42:14;147726.34;;;18.83;58.17
28354;BME280;15603;50.878;8.036;2023-04-23T11:44:44;147824.16;;;19.25;57.07
28354;BME280;15603;50.878;8.036;2023-04-23T11:47:12;147774.03;;;19.03;59.86
28354;BME280;15603;50.878;8.036;2023-04-23T11:49:41;147664.00;;;18.57;58.13
28354;BME280;15603;50.878;8.036;2023-04-23T11:52:10;147583.34;;;18.23;59.01
28354;BME280;15603;50.878;8.036;2023-04-23T11:54:40;147435.53;;;17.61;62.10
28354;BME280;15603;50.878;8.036;2023-04-23T11:57:08;147319.50;;;17.13;63.92
28354;BME280;15603;50.878;8.036;2023-04-23T11:59:36;147170.59;;;16.50;64.59
28354;BME280;15603;50.878;8.036;2023-04-23T12:02:03;147137.66;;;16.36;62.92
28354;BME280;15603;50.878;8.036;2023-04-23T12:04:31;147098.59;;;16.20;63.38
28354;BME280;15603;50.878;8.036;2023-04-23T12:06:59;147068.06;;;16.07;68.07
28354;BME280;15603;50.878;8.036;2023-04-23T12:09:27;146970.47;;;15.66;74.18
28354;BME280;15603;50.878;8.036;2023-04-23T12:11:56;147002.22;;;15.79;77.10
28354;BME280;15603;50.878;8.036;2023-04-23T12:14:26;147036.41;;;15.94;74.39
28354;BME280;15603;50.878;8.036;2023-04-23T12:16:57;147109.59;;;16.24;71.85
28354;BME280;15603;50.878;8.036;2023-04-23T12:19:29;147223.03;;;16.72;68.57
28354;BME280;15603;50.878;8.036;2023-04-23T12:22:02;147348.84;;;17.25;67.38
28354;BME280;15603;50.878;8.036;2023-04-23T12:24:43;147397.66;;;17.45;66.28
28354;BME280;15603;50.878;8.036;2023-04-23T12:27:14;147361.03;;;17.30;63.09
28354;BME280;15603;50.878;8.036;2023-04-23T12:29:42;147346.38;;;17.24;65.45
28354;BME280;15603;50.878;8.036;2023-04-23T12:32:10;147446.50;;;17.66;62.83
28354;BME280;15603;50.878;8.036;2023-04-23T12:34:50;147467.28;;;17.75;60.69
28354;BME280;15603;50.878;8.036;2023-04-23T12:37:28;147451.38;;;17.68;60.40
28354;BME280;15603;50.878;8.036;2023-04-23T12:39:55;147486.81;;;17.83;60.63
28354;BME280;15603;50.878;8.036;2023-04-23T12:42:25;147632.22;;;18.44;59.65
28354;BME280;15603;50.878;8.036;2023-04-23T12:44:52;147621.22;;;18.39;57.63
28354;BME280;15603;50.878;8.036;2023-04-23T12:47:22;147646.88;;;18.50;59.18
28354;BME280;15603;50.878;8.036;2023-04-23T12:49:49;147600.47;;;18.31;60.36
28354;BME280;15603;50.878;8.036;2023-04-23T12:52:20;147591.91;;;18.27;61.11
28354;BME280;15603;50.878;8.036;2023-04-23T12:54:47;147716.53;;;18.79;62.82
28354;BME280;15603;50.878;8.036;2023-04-23T12:57:18;147664.00;;;18.57;59.49
28354;BME280;15603;50.878;8.036;2023-04-23T12:59:49;147683.53;;;18.66;59.04